Time;durP1;ratioP1;P1;durP2;ratioP2;P2;SDS_P1;SDS_P2;PMS_P1;PMS_P2;Temp;Humidity;BMP_temperature;BMP_pressure;BME280_temperature;BME280_humidity;BME280_pressure;Samples;Min_cycle;Max_cycle;Signal;HPM_P1;HPM_P2
2022/07/03 00:01:56;;;;;;;3.53;2.05;;;;;;;16.15;74.92;97524.25;5031426;28;20041;-66
2022/07/03 00:04:23;;;;;;;4.28;1.90;;;;;;;16.18;74.94;97524.50;5030379;28;20153;-67
2022/07/03 00:06:52;;;;;;;3.70;1.95;;;;;;;16.17;75.06;97520.16;5029992;28;20083;-67
2022/07/03 00:09:19;;;;;;;3.22;1.90;;;;;;;16.18;75.05;97521.75;5030414;28;20045;-66
2022/07/03 00:11:46;;;;;;;5.05;1.77;;;;;;;16.19;75.11;97528.06;5036655;28;20033;-66
2022/07/03 00:14:13;;;;;;;5.43;2.00;;;;;;;16.30;74.54;97526.06;5049487;28;20049;-67
2022/07/03 00:16:39;;;;;;;3.35;1.70;;;;;;;16.36;74.57;97519.44;5049477;28;20048;-67
2022/07/03 00:19:07;;;;;;;3.80;2.05;;;;;;;16.33;74.59;97528.22;5049473;28;20492;-66
2022/07/03 00:21:53;;;;;;;3.10;1.75;;;;;;;16.32;74.79;97530.13;5049744;28;20045;-66
2022/07/03 00:24:31;;;;;;;3.92;2.05;;;;;;;16.30;74.92;97526.88;5048988;28;20287;-66
2022/07/03 00:27:00;;;;;;;3.70;2.17;;;;;;;16.37;74.58;97521.09;5049088;28;20068;-67
2022/07/03 00:29:35;;;;;;;3.17;1.80;;;;;;;16.49;74.02;97523.44;5049736;28;20056;-66
2022/07/03 00:32:03;;;;;;;5.28;1.70;;;;;;;16.47;74.25;97523.72;5011436;28;20042;-67
2022/07/03 00:34:30;;;;;;;4.85;3.20;;;;;;;16.38;74.40;97519.97;5009752;28;20038;-66
2022/07/03 00:37:00;;;;;;;3.47;1.73;;;;;;;16.23;75.59;97523.66;5014106;28;20045;-66
2022/07/03 00:39:39;;;;;;;4.15;1.90;;;;;;;16.18;75.93;97527.22;5029558;28;20398;-66
2022/07/03 00:42:07;;;;;;;4.15;2.08;;;;;;;16.16;75.81;97521.25;5029170;28;20041;-67
2022/07/03 00:44:56;;;;;;;5.10;1.70;;;;;;;16.08;76.42;97522.69;5028492;28;20395;-66
2022/07/03 00:47:25;;;;;;;3.17;1.90;;;;;;;16.06;76.46;97524.03;5028969;28;20045;-67
2022/07/03 00:49:54;;;;;;;3.55;2.20;;;;;;;16.09;75.96;97521.56;5029662;28;20425;-66
2022/07/03 00:52:22;;;;;;;3.17;1.83;;;;;;;16.14;75.89;97523.44;5049290;28;20067;-66
2022/07/03 00:54:56;;;;;;;3.78;2.15;;;;;;;16.10;76.04;97519.66;5048939;28;20053;-66
2022/07/03 00:57:25;;;;;;;3.10;1.88;;;;;;;16.12;75.97;97523.75;5048666;28;20497;-67
2022/07/03 00:59:53;;;;;;;5.47;1.90;;;;;;;16.13;75.78;97532.75;5049451;28;20174;-66
2022/07/03 01:02:39;;;;;;;3.10;1.60;;;;;;;15.78;77.29;97531.84;5048383;28;20045;-66
2022/07/03 01:05:09;;;;;;;3.08;1.80;;;;;;;15.59;78.41;97533.31;5048188;28;20048;-66
2022/07/03 01:07:45;;;;;;;5.97;2.00;;;;;;;15.51;78.93;97538.56;5034843;28;20041;-67
2022/07/03 01:10:35;;;;;;;4.18;2.08;;;;;;;15.51;78.99;97535.81;5029613;28;20045;-67
2022/07/03 01:13:17;;;;;;;4.03;1.67;;;;;;;15.54;79.13;97533.34;5018963;28;20041;-67
2022/07/03 01:15:53;;;;;;;3.25;1.98;;;;;;;15.67;78.75;97529.16;5022448;28;20034;-66
2022/07/03 01:18:22;;;;;;;4.13;2.03;;;;;;;15.57;78.99;97530.06;5028815;28;20479;-67
2022/07/03 01:20:55;;;;;;;3.38;1.90;;;;;;;15.51;79.26;97527.63;5026494;28;20041;-66
2022/07/03 01:23:45;;;;;;;4.43;1.88;;;;;;;15.41;79.72;97526.56;5028606;28;20274;-67
2022/07/03 01:26:15;;;;;;;3.75;2.10;;;;;;;15.39;79.77;97538.88;5028190;28;20045;-67
2022/07/03 01:28:45;;;;;;;5.13;1.90;;;;;;;15.24;80.50;97528.81;5028522;28;20044;-66
2022/07/03 01:31:19;;;;;;;4.13;1.98;;;;;;;15.23;80.69;97524.47;5028063;28;20041;-66
2022/07/03 01:33:49;;;;;;;4.50;2.10;;;;;;;15.21;80.72;97530.22;5028446;28;20295;-66
2022/07/03 01:36:19;;;;;;;3.72;2.10;;;;;;;15.17;80.86;97531.84;5028242;28;20056;-67
2022/07/03 01:38:49;;;;;;;3.15;1.90;;;;;;;15.09;81.17;97525.06;5028234;28;20041;-67
2022/07/03 01:41:16;;;;;;;5.22;1.80;;;;;;;15.05;81.46;97529.44;5028347;28;20041;-66
2022/07/03 01:43:55;;;;;;;4.53;1.90;;;;;;;14.97;81.82;97525.38;5027880;28;20045;-66
2022/07/03 01:46:28;;;;;;;2.28;1.42;;;;;;;14.94;81.70;97529.50;5027520;28;20041;-66
2022/07/03 01:48:56;;;;;;;3.95;1.80;;;;;;;14.93;82.06;97522.38;5027689;28;20519;-66
2022/07/03 01:51:23;;;;;;;3.78;1.90;;;;;;;14.92;81.94;97530.84;5041470;28;20161;-66
2022/07/03 01:53:52;;;;;;;3.10;1.60;;;;;;;14.94;82.12;97524.03;5027527;28;20049;-68
2022/07/03 01:56:21;;;;;;;5.10;2.00;;;;;;;14.99;81.54;97520.47;5016951;28;20080;-67
2022/07/03 01:58:48;;;;;;;3.22;2.00;;;;;;;15.08;81.22;97515.28;5008555;28;20056;-67
2022/07/03 02:01:25;;;;;;;3.28;1.85;;;;;;;15.09;80.87;97516.91;5007719;28;20046;-67
2022/07/03 02:04:03;;;;;;;5.38;2.13;;;;;;;15.05;80.92;97511.19;5008234;28;20076;-66
2022/07/03 02:06:41;;;;;;;3.13;1.50;;;;;;;14.96;81.51;97518.28;5006701;28;20432;-66
2022/07/03 02:09:10;;;;;;;3.13;1.90;;;;;;;14.89;82.33;97512.31;5018652;28;20489;-66
2022/07/03 02:11:53;;;;;;;4.82;1.80;;;;;;;14.79;82.63;97516.72;5024867;28;20030;-66
2022/07/03 02:14:23;;;;;;;3.80;1.92;;;;;;;14.68;83.15;97504.16;5008182;28;20049;-67
2022/07/03 02:17:02;;;;;;;3.38;2.05;;;;;;;14.69;82.85;97509.34;5008219;28;20042;-66
2022/07/03 02:19:43;;;;;;;4.25;2.17;;;;;;;14.71;82.97;97503.63;5007221;28;20046;-66
2022/07/03 02:22:13;;;;;;;2.78;1.70;;;;;;;14.82;82.04;97507.16;5008368;28;20563;-66
2022/07/03 02:24:45;;;;;;;3.22;1.85;;;;;;;14.80;82.31;97512.06;5007584;28;20052;-67
2022/07/03 02:27:21;;;;;;;3.25;1.92;;;;;;;14.76;82.45;97510.94;5023378;28;20398;-67
2022/07/03 02:30:04;;;;;;;3.00;1.90;;;;;;;14.72;82.72;97515.31;5017361;28;20421;-66
2022/07/03 02:32:38;;;;;;;5.63;2.03;;;;;;;14.67;82.64;97514.22;5008130;28;20034;-65
2022/07/03 02:35:06;;;;;;;3.30;1.85;;;;;;;14.61;83.29;97515.34;5007391;28;20038;-66
2022/07/03 02:37:47;;;;;;;9.73;2.00;;;;;;;14.65;83.11;97510.97;5016720;28;20116;-66
2022/07/03 02:40:28;;;;;;;4.18;2.00;;;;;;;14.62;83.37;97516.97;5026884;28;20452;-67
2022/07/03 02:43:10;;;;;;;4.60;2.17;;;;;;;14.69;82.74;97516.69;5018148;28;20137;-66
2022/07/03 02:45:42;;;;;;;5.75;2.38;;;;;;;14.79;82.05;97522.16;5007030;28;20049;-66
2022/07/03 02:48:31;;;;;;;2.47;1.75;;;;;;;14.78;82.34;97522.44;5006944;28;20057;-66
2022/07/03 02:51:04;;;;;;;4.50;2.03;;;;;;;14.67;82.78;97525.13;5027325;28;20086;-66
2022/07/03 02:53:38;;;;;;;3.67;2.20;;;;;;;14.58;83.14;97521.34;5037374;28;20085;-67
2022/07/03 02:56:14;;;;;;;3.40;1.80;;;;;;;14.60;83.24;97524.63;5007311;28;20429;-66
2022/07/03 02:59:05;;;;;;;3.63;1.90;;;;;;;14.59;82.78;97520.25;5007071;28;20046;-66
2022/07/03 03:01:41;;;;;;;5.70;2.00;;;;;;;14.59;82.98;97522.97;5006925;28;20099;-67
2022/07/03 03:04:26;;;;;;;5.75;2.05;;;;;;;14.55;83.23;97525.44;5009818;28;20046;-66
2022/07/03 03:07:13;;;;;;;2.85;1.67;;;;;;;14.50;83.33;97527.34;5010359;28;20045;-67
2022/07/03 03:09:44;;;;;;;3.88;1.80;;;;;;;14.50;83.32;97530.06;5027419;28;20041;-66
2022/07/03 03:12:12;;;;;;;3.15;2.00;;;;;;;14.44;83.57;97529.25;5024536;28;20042;-66
2022/07/03 03:14:43;;;;;;;6.05;2.08;;;;;;;14.35;83.89;97539.06;5010998;28;20045;-67
2022/07/03 03:17:24;;;;;;;5.20;2.00;;;;;;;14.32;84.02;97534.97;5011764;28;20131;-66
2022/07/03 03:19:56;;;;;;;4.25;1.92;;;;;;;14.27;84.50;97532.25;5030672;28;20120;-66
2022/07/03 03:22:40;;;;;;;5.07;2.05;;;;;;;14.25;84.49;97531.69;5034382;28;20424;-66
2022/07/03 03:25:11;;;;;;;4.05;2.03;;;;;;;14.25;84.69;97537.16;5030392;28;20318;-66
2022/07/03 03:27:37;;;;;;;4.88;2.00;;;;;;;14.23;84.48;97531.97;5039042;28;20050;-66
2022/07/03 03:30:06;;;;;;;4.97;1.83;;;;;;;14.21;84.82;97533.34;5040416;28;20041;-66
2022/07/03 03:32:35;;;;;;;4.63;1.95;;;;;;;14.10;85.20;97537.94;5030332;28;20513;-66
2022/07/03 03:35:02;;;;;;;4.93;2.10;;;;;;;14.09;85.24;97544.50;5027193;28;20053;-66
2022/07/03 03:37:30;;;;;;;3.20;1.90;;;;;;;14.08;85.60;97553.75;5032308;28;20241;-66
2022/07/03 03:39:57;;;;;;;3.42;1.80;;;;;;;14.05;85.43;97553.19;5026489;28;20416;-66
2022/07/03 03:42:24;;;;;;;3.30;1.85;;;;;;;14.04;85.40;97548.00;5029044;28;20048;-66
2022/07/03 03:44:50;;;;;;;4.00;1.90;;;;;;;14.04;85.45;97550.75;5010878;28;20045;-66
2022/07/03 03:47:17;;;;;;;5.47;1.90;;;;;;;14.03;85.51;97549.94;5011672;28;20042;-66
2022/07/03 03:49:44;;;;;;;2.97;1.60;;;;;;;14.10;85.29;97557.84;5010202;28;20057;-67
2022/07/03 03:52:11;;;;;;;3.22;1.85;;;;;;;14.15;85.08;97557.84;5018009;28;20033;-66
2022/07/03 03:54:38;;;;;;;3.55;1.77;;;;;;;14.24;84.61;97562.75;5010487;28;20045;-66
2022/07/03 03:57:19;;;;;;;3.57;1.77;;;;;;;14.23;84.34;97561.91;5010139;28;20057;-66
2022/07/03 03:59:47;;;;;;;2.80;1.50;;;;;;;14.21;84.56;97560.56;5009209;28;20247;-67
2022/07/03 04:02:14;;;;;;;2.50;1.70;;;;;;;14.18;84.55;97560.03;5009386;28;20057;-66
2022/07/03 04:04:41;;;;;;;3.20;2.10;;;;;;;14.17;84.77;97557.56;5010211;28;20046;-67
2022/07/03 04:07:08;;;;;;;3.78;1.75;;;;;;;14.25;84.45;97558.94;5008491;28;20294;-67
2022/07/03 04:09:35;;;;;;;2.78;1.70;;;;;;;14.26;84.50;97558.66;5025549;28;20056;-66
2022/07/03 04:12:03;;;;;;;2.90;1.67;;;;;;;14.32;84.37;97567.66;5029451;28;20041;-67
2022/07/03 04:14:30;;;;;;;2.78;1.65;;;;;;;14.40;83.92;97574.47;5012501;28;20068;-66
2022/07/03 04:16:56;;;;;;;3.13;1.80;;;;;;;14.42;84.12;97566.84;5007799;28;20050;-66
2022/07/03 04:19:23;;;;;;;4.10;1.75;;;;;;;14.47;84.01;97566.84;5009930;28;20441;-66
2022/07/03 04:21:51;;;;;;;2.97;1.40;;;;;;;14.52;83.49;97572.28;5009332;28;20053;-66
2022/07/03 04:24:18;;;;;;;6.00;1.90;;;;;;;14.59;83.36;97580.19;5009655;28;20077;-66
2022/07/03 04:26:45;;;;;;;6.97;1.83;;;;;;;14.66;83.33;97571.72;5016335;28;20041;-67
2022/07/03 04:29:12;;;;;;;3.42;1.83;;;;;;;14.72;83.17;97575.28;5029405;28;20124;-66
2022/07/03 04:31:38;;;;;;;5.43;2.25;;;;;;;14.79;82.72;97576.69;5015862;28;20233;-66
2022/07/03 04:34:05;;;;;;;2.35;1.45;;;;;;;14.89;82.17;97580.47;5009407;28;20133;-67
2022/07/03 04:36:32;;;;;;;5.22;2.00;;;;;;;15.00;82.17;97581.28;5010574;28;20045;-67
2022/07/03 04:38:58;;;;;;;3.50;1.77;;;;;;;15.09;81.50;97587.78;5026424;28;20049;-66
2022/07/03 04:41:25;;;;;;;2.17;1.48;;;;;;;15.16;81.22;97591.06;5029180;28;20052;-66
2022/07/03 04:43:51;;;;;;;3.80;1.70;;;;;;;15.19;81.67;97579.56;5017335;28;20057;-67
2022/07/03 04:46:18;;;;;;;2.58;1.33;;;;;;;15.22;81.11;97583.66;5009013;28;20038;-67
2022/07/03 04:48:45;;;;;;;3.40;1.30;;;;;;;15.32;81.18;97589.09;5007308;28;20374;-67
2022/07/03 04:51:12;;;;;;;3.38;1.83;;;;;;;15.39;81.24;97590.69;5032539;28;20041;-66
2022/07/03 04:53:38;;;;;;;3.85;1.77;;;;;;;15.51;80.65;97595.84;5020665;28;20090;-66
2022/07/03 04:56:05;;;;;;;2.38;1.58;;;;;;;15.58;80.49;97591.72;5043210;28;20570;-66
2022/07/03 04:58:32;;;;;;;4.38;1.33;;;;;;;15.69;80.39;97594.41;5026351;28;20046;-66
2022/07/03 05:00:58;;;;;;;3.63;1.58;;;;;;;15.79;80.32;97597.09;5024691;28;20049;-66
2022/07/03 05:03:25;;;;;;;3.40;1.75;;;;;;;15.82;81.43;97587.53;5026270;28;20052;-66
2022/07/03 05:05:52;;;;;;;3.10;1.70;;;;;;;15.90;80.85;97591.56;5029367;28;20042;-66
2022/07/03 05:08:20;;;;;;;4.88;1.70;;;;;;;16.04;80.53;97589.06;5013828;28;20073;-66
2022/07/03 05:10:46;;;;;;;2.13;1.33;;;;;;;16.17;80.44;97582.16;5039762;28;20056;-67
2022/07/03 05:13:13;;;;;;;3.58;1.45;;;;;;;16.29;79.93;97581.81;5017377;28;20053;-66
2022/07/03 05:15:40;;;;;;;3.17;1.40;;;;;;;16.42;80.00;97586.63;5026779;28;20520;-66
2022/07/03 05:18:06;;;;;;;2.83;1.50;;;;;;;16.52;79.67;97583.00;5016508;28;20464;-66
2022/07/03 05:20:33;;;;;;;2.13;1.38;;;;;;;16.62;79.81;97584.84;5009029;28;20049;-66
2022/07/03 05:23:01;;;;;;;3.13;1.70;;;;;;;16.75;79.52;97580.63;5008002;28;20073;-67
2022/07/03 05:25:30;;;;;;;2.05;1.38;;;;;;;16.86;78.62;97582.16;5009077;28;20041;-67
2022/07/03 05:27:57;;;;;;;3.03;1.23;;;;;;;17.00;78.37;97585.00;5007688;28;20046;-66
2022/07/03 05:30:25;;;;;;;3.00;1.27;;;;;;;17.22;77.35;97580.19;5008318;28;20042;-66
2022/07/03 05:32:52;;;;;;;3.20;1.40;;;;;;;17.38;76.52;97584.38;5008644;28;20116;-66
2022/07/03 05:35:19;;;;;;;2.88;1.92;;;;;;;17.51;76.59;97588.31;5007594;28;20033;-66
2022/07/03 05:37:46;;;;;;;4.70;1.40;;;;;;;17.62;75.92;97583.53;5017913;28;20049;-67
2022/07/03 05:40:13;;;;;;;3.65;1.70;;;;;;;17.77;75.52;97595.41;5027430;28;20045;-67
2022/07/03 05:42:39;;;;;;;2.97;1.60;;;;;;;17.94;75.69;97581.19;5013445;28;20053;-66
2022/07/03 05:45:07;;;;;;;3.47;1.58;;;;;;;18.10;74.30;97584.59;5008921;28;20441;-67
2022/07/03 05:47:33;;;;;;;4.43;1.58;;;;;;;18.25;73.64;97589.03;5007741;28;20045;-67
2022/07/03 05:50:00;;;;;;;4.13;1.35;;;;;;;18.38;73.24;97586.63;5012280;28;20559;-66
2022/07/03 05:52:26;;;;;;;3.97;1.70;;;;;;;18.43;72.30;97590.09;5047873;28;20044;-66
2022/07/03 05:54:53;;;;;;;6.03;1.30;;;;;;;18.56;72.25;97587.72;5014854;28;20046;-66
2022/07/03 05:57:20;;;;;;;2.75;1.15;;;;;;;18.68;70.62;97584.50;5007826;28;20165;-66
2022/07/03 05:59:47;;;;;;;2.67;1.30;;;;;;;18.82;70.73;97588.09;5007615;28;20096;-66
2022/07/03 06:02:14;;;;;;;2.35;1.33;;;;;;;18.96;68.37;97579.09;5006600;28;20321;-66
2022/07/03 06:04:41;;;;;;;1.52;1.00;;;;;;;19.02;68.60;97585.31;5007319;28;20088;-67
2022/07/03 06:07:07;;;;;;;2.17;1.20;;;;;;;19.13;69.31;97580.47;5007903;28;20477;-66
2022/07/03 06:09:34;;;;;;;3.08;1.10;;;;;;;19.25;68.12;97575.28;5023553;28;20146;-66
2022/07/03 06:12:00;;;;;;;1.55;1.20;;;;;;;19.40;67.15;97582.41;5025177;28;20041;-66
2022/07/03 06:14:27;;;;;;;1.60;1.00;;;;;;;19.55;67.15;97578.56;5027936;28;20055;-66
2022/07/03 06:16:53;;;;;;;3.33;1.05;;;;;;;19.65;65.65;97585.78;5021165;28;20431;-66
2022/07/03 06:19:20;;;;;;;1.88;1.10;;;;;;;19.75;65.08;97588.28;5008796;28;20061;-66
2022/07/03 06:21:47;;;;;;;2.15;1.25;;;;;;;19.93;64.23;97587.66;5008777;28;20042;-66
2022/07/03 06:24:13;;;;;;;1.38;1.02;;;;;;;20.06;63.55;97588.78;5007618;28;20516;-66
2022/07/03 06:26:40;;;;;;;1.50;0.88;;;;;;;20.15;61.87;97589.66;5008701;28;20065;-66
2022/07/03 06:29:06;;;;;;;2.28;0.88;;;;;;;20.25;62.42;97592.19;5006920;28;20119;-66
2022/07/03 06:31:33;;;;;;;2.75;1.23;;;;;;;20.32;62.35;97588.19;5007762;28;20050;-66
2022/07/03 06:34:00;;;;;;;3.13;1.00;;;;;;;20.37;61.11;97593.56;5011951;28;20041;-66
2022/07/03 06:36:26;;;;;;;1.45;0.90;;;;;;;20.46;61.21;97594.47;5008250;28;20041;-66
2022/07/03 06:38:53;;;;;;;1.27;0.80;;;;;;;20.53;61.16;97586.56;5023994;28;20045;-66
2022/07/03 06:41:19;;;;;;;1.27;0.80;;;;;;;20.61;60.85;97585.03;5006417;28;20509;-66
2022/07/03 06:43:46;;;;;;;2.17;1.05;;;;;;;20.64;60.99;97589.88;5007888;28;20057;-66
2022/07/03 06:46:12;;;;;;;2.40;1.38;;;;;;;20.73;61.41;97587.19;5006262;28;20267;-66
2022/07/03 06:48:39;;;;;;;4.68;1.20;;;;;;;20.83;62.11;97588.88;5006030;28;20104;-66
2022/07/03 06:51:05;;;;;;;4.07;1.10;;;;;;;20.96;61.31;97594.66;5029054;28;20291;-66
2022/07/03 06:53:32;;;;;;;2.78;1.00;;;;;;;21.15;60.50;97597.16;5007942;28;20100;-66
2022/07/03 06:55:59;;;;;;;3.58;1.10;;;;;;;21.24;60.32;97588.94;5006808;28;20038;-66
2022/07/03 06:58:25;;;;;;;2.15;1.05;;;;;;;21.37;57.10;97595.47;5006510;28;20480;-66
2022/07/03 07:00:52;;;;;;;2.20;0.70;;;;;;;21.48;55.65;97590.50;5007244;28;20050;-66
2022/07/03 07:03:18;;;;;;;1.90;1.00;;;;;;;21.54;55.14;97597.47;5006875;28;20112;-65
2022/07/03 07:05:45;;;;;;;1.63;0.85;;;;;;;21.60;54.15;97600.91;5007416;28;20065;-66
2022/07/03 07:08:11;;;;;;;2.40;0.93;;;;;;;21.66;53.70;97597.69;5005080;28;20042;-66
2022/07/03 07:10:38;;;;;;;1.40;0.82;;;;;;;21.77;51.70;97603.72;5007119;28;20348;-66
2022/07/03 07:13:05;;;;;;;1.65;0.73;;;;;;;21.88;51.28;97600.66;5024717;28;20045;-66
2022/07/03 07:15:31;;;;;;;4.40;0.70;;;;;;;22.03;51.10;97602.16;5014777;28;20053;-66
2022/07/03 07:17:58;;;;;;;2.00;0.82;;;;;;;22.10;51.64;97608.00;5007293;28;20557;-67
2022/07/03 07:20:24;;;;;;;1.75;0.70;;;;;;;22.17;50.24;97600.06;5012380;28;20052;-67
2022/07/03 07:22:51;;;;;;;1.95;0.70;;;;;;;22.26;51.28;97610.31;5009464;28;20049;-67
2022/07/03 07:25:18;;;;;;;2.00;0.77;;;;;;;22.27;50.84;97606.41;5006809;28;20041;-67
2022/07/03 07:27:44;;;;;;;1.40;0.90;;;;;;;22.30;53.09;97606.56;5006635;28;20042;-67
2022/07/03 07:30:11;;;;;;;1.30;0.80;;;;;;;22.33;52.63;97610.59;5012655;28;20049;-66
2022/07/03 07:32:37;;;;;;;3.30;0.90;;;;;;;22.37;51.95;97608.03;5026542;28;20041;-66
2022/07/03 07:35:05;;;;;;;1.48;1.00;;;;;;;22.40;52.83;97618.44;5022346;28;20042;-67
2022/07/03 07:37:31;;;;;;;1.27;0.70;;;;;;;22.44;53.64;97617.44;5015930;28;20056;-65
2022/07/03 07:39:58;;;;;;;1.15;0.80;;;;;;;22.53;52.66;97602.81;5021580;28;20052;-66
2022/07/03 07:42:24;;;;;;;0.90;0.60;;;;;;;22.61;49.21;97607.56;5019962;28;20562;-66
2022/07/03 07:44:51;;;;;;;1.75;0.70;;;;;;;22.63;49.74;97610.81;5030252;28;20053;-66
2022/07/03 07:47:18;;;;;;;1.67;1.00;;;;;;;22.69;48.59;97614.19;5015621;28;20100;-66
2022/07/03 07:49:44;;;;;;;0.80;0.60;;;;;;;22.68;47.22;97607.06;5015289;28;20046;-66
2022/07/03 07:52:11;;;;;;;2.25;0.90;;;;;;;22.72;47.87;97603.34;5013510;28;20493;-66
2022/07/03 07:54:38;;;;;;;1.60;0.60;;;;;;;22.88;48.08;97602.00;5008693;28;20321;-66
2022/07/03 07:57:04;;;;;;;1.77;0.65;;;;;;;22.94;49.03;97597.94;5026135;28;20045;-66
2022/07/03 07:59:31;;;;;;;1.30;0.70;;;;;;;22.98;47.92;97602.47;5019434;28;20547;-66
2022/07/03 08:07:28;;;;;;;0.70;0.52;;;;;;;23.11;47.59;97592.34;5009265;28;20431;-66
2022/07/03 08:09:54;;;;;;;2.42;0.60;;;;;;;23.25;46.50;97592.16;5023407;28;20064;-66
2022/07/03 08:12:21;;;;;;;1.23;0.70;;;;;;;23.32;46.31;97593.56;5021579;28;20046;-66
2022/07/03 08:14:47;;;;;;;1.25;0.60;;;;;;;23.36;45.16;97598.16;5026588;28;20037;-66
2022/07/03 08:17:14;;;;;;;0.85;0.45;;;;;;;23.45;45.80;97594.53;5009891;28;20403;-66
2022/07/03 08:19:41;;;;;;;0.88;0.52;;;;;;;23.58;44.93;97603.75;5009231;28;20041;-66
2022/07/03 08:22:08;;;;;;;3.30;1.15;;;;;;;23.61;44.16;97595.59;5010163;28;20061;-67
2022/07/03 08:24:34;;;;;;;0.98;0.60;;;;;;;23.74;45.40;97593.72;5010108;28;20046;-67
2022/07/03 08:27:01;;;;;;;0.88;0.60;;;;;;;23.73;44.99;97591.31;5009664;28;20513;-66
2022/07/03 08:29:27;;;;;;;1.20;0.70;;;;;;;23.69;44.28;97585.63;5009775;28;20441;-67
2022/07/03 08:32:01;;;;;;;1.95;0.52;;;;;;;23.74;43.56;97587.41;5029401;28;20527;-67
2022/07/03 08:34:28;;;;;;;2.45;0.70;;;;;;;24.03;41.84;97583.00;5025548;28;20435;-66
2022/07/03 08:36:55;;;;;;;1.60;0.60;;;;;;;24.18;40.88;97586.31;5023176;28;20527;-66
2022/07/03 08:39:21;;;;;;;1.60;0.60;;;;;;;24.28;41.28;97586.72;5035507;28;20527;-67
2022/07/03 08:41:49;;;;;;;1.48;0.50;;;;;;;24.33;39.87;97584.91;5043052;28;20049;-66
2022/07/03 08:44:17;;;;;;;2.20;0.60;;;;;;;24.26;39.55;97589.03;5020046;28;20049;-68
2022/07/03 08:46:45;;;;;;;1.45;0.50;;;;;;;24.20;39.04;97572.94;5013855;28;20338;-67
2022/07/03 08:49:12;;;;;;;0.63;0.40;;;;;;;24.10;39.77;97571.41;5008713;28;20038;-67
2022/07/03 08:51:40;;;;;;;1.17;0.30;;;;;;;24.12;39.53;97583.75;5040585;28;20056;-66
2022/07/03 08:54:07;;;;;;;0.80;0.40;;;;;;;24.14;40.01;97580.66;5035319;28;20048;-66
2022/07/03 08:56:35;;;;;;;1.85;1.05;;;;;;;24.22;40.06;97582.56;5009649;28;20042;-67
2022/07/03 08:59:06;;;;;;;1.67;0.40;;;;;;;24.37;37.93;97580.31;5009101;28;20120;-68
2022/07/03 09:01:34;;;;;;;1.73;0.55;;;;;;;24.55;37.47;97579.00;5009677;28;20041;-67
2022/07/03 09:04:01;;;;;;;1.30;0.57;;;;;;;24.64;38.84;97587.25;5009526;28;20461;-66
2022/07/03 09:06:33;;;;;;;1.90;0.50;;;;;;;24.59;39.43;97576.38;5008823;28;20038;-66
2022/07/03 09:09:03;;;;;;;0.35;0.32;;;;;;;24.64;40.05;97581.69;5020031;28;20529;-66
2022/07/03 09:11:30;;;;;;;2.42;0.52;;;;;;;24.53;38.94;97574.97;5027375;28;20120;-66
2022/07/03 09:13:56;;;;;;;0.52;0.40;;;;;;;24.53;39.23;97577.72;5029370;28;20072;-67
2022/07/03 09:16:23;;;;;;;3.92;0.95;;;;;;;24.67;39.34;97574.66;5025403;28;20843;-66
2022/07/03 09:18:50;;;;;;;0.40;0.40;;;;;;;24.90;37.72;97585.38;5008633;28;20050;-67
2022/07/03 09:21:16;;;;;;;0.75;0.55;;;;;;;25.00;38.05;97579.41;5009132;28;20049;-66
2022/07/03 09:23:45;;;;;;;1.98;0.35;;;;;;;24.99;37.15;97575.00;5009131;28;20042;-67
2022/07/03 09:26:14;;;;;;;0.60;0.40;;;;;;;25.15;38.51;97575.16;5009125;28;20249;-67
2022/07/03 09:28:51;;;;;;;0.88;0.40;;;;;;;25.26;38.21;97575.53;5006992;28;20053;-67
2022/07/03 09:31:24;;;;;;;0.73;0.50;;;;;;;25.24;37.32;97574.25;5009111;28;20046;-67
2022/07/03 09:33:54;;;;;;;0.88;0.50;;;;;;;25.20;37.75;97568.56;5008086;28;20119;-66
2022/07/03 09:36:37;;;;;;;0.88;0.50;;;;;;;25.20;37.84;97577.72;5009029;28;20048;-66
2022/07/03 09:39:21;;;;;;;2.17;0.50;;;;;;;25.14;37.89;97576.31;5008239;28;20425;-66
2022/07/03 09:41:59;;;;;;;2.08;0.45;;;;;;;25.10;37.16;97580.94;5008560;28;20048;-66
2022/07/03 09:44:40;;;;;;;1.27;0.63;;;;;;;25.09;37.40;97581.28;5008251;28;20041;-67
2022/07/03 09:47:19;;;;;;;1.30;0.45;;;;;;;25.13;38.82;97573.91;5008745;28;20050;-67
2022/07/03 09:49:50;;;;;;;1.45;0.60;;;;;;;25.15;38.70;97575.16;5007848;28;20050;-67
2022/07/03 09:52:40;;;;;;;0.82;0.40;;;;;;;25.13;38.93;97569.16;5047782;28;20060;-66
2022/07/03 09:55:09;;;;;;;1.40;0.68;;;;;;;25.04;38.77;97560.13;5044973;28;20111;-66
2022/07/03 09:57:43;;;;;;;1.52;0.50;;;;;;;25.06;38.70;97561.41;5019573;28;20045;-67
2022/07/03 10:00:11;;;;;;;0.47;0.40;;;;;;;25.19;40.65;97561.44;5007868;28;20038;-66
2022/07/03 10:03:09;;;;;;;2.15;0.68;;;;;;;25.24;39.15;97568.72;5008508;28;20038;-67
2022/07/03 10:05:37;;;;;;;2.33;0.73;;;;;;;25.36;39.10;97562.38;5007757;28;20052;-66
2022/07/03 10:08:11;;;;;;;3.35;0.70;;;;;;;25.39;40.05;97554.16;5011331;28;20559;-66
2022/07/03 10:10:41;;;;;;;1.23;0.75;;;;;;;25.50;39.46;97559.25;5011530;28;20042;-67
2022/07/03 10:13:09;;;;;;;1.75;0.60;;;;;;;25.50;38.95;97560.03;5012627;28;20042;-67
2022/07/03 10:15:37;;;;;;;1.23;0.60;;;;;;;25.40;39.07;97554.97;5006289;28;20049;-67
2022/07/03 10:18:11;;;;;;;0.55;0.43;;;;;;;25.46;38.35;97562.72;5008149;28;20517;-67
2022/07/03 10:20:46;;;;;;;0.35;0.35;;;;;;;25.44;38.36;97558.66;5007282;28;20050;-67
2022/07/03 10:23:15;;;;;;;1.25;0.55;;;;;;;25.36;38.09;97560.41;5008205;28;20045;-67
2022/07/03 10:25:43;;;;;;;1.42;0.43;;;;;;;25.32;38.66;97551.19;5007360;28;20115;-67
2022/07/03 10:28:14;;;;;;;2.42;0.50;;;;;;;25.31;38.48;97552.31;5007887;28;20034;-67
2022/07/03 10:30:44;;;;;;;1.80;1.25;;;;;;;25.54;39.88;97552.66;5011212;28;20496;-67
2022/07/03 10:33:10;;;;;;;1.65;0.70;;;;;;;25.76;39.81;97558.09;5027178;28;20041;-67
2022/07/03 10:35:41;;;;;;;0.80;0.52;;;;;;;25.82;39.45;97556.69;5027484;28;20152;-67
2022/07/03 10:38:33;;;;;;;1.38;0.65;;;;;;;26.03;38.74;97553.78;5027506;28;20056;-67
2022/07/03 10:46:37;;;;;;;1.40;0.70;;;;;;;25.91;38.57;97553.81;5036194;28;20527;-67
2022/07/03 10:49:06;;;;;;;4.32;0.60;;;;;;;25.93;38.40;97554.25;5030380;28;20079;-66
2022/07/03 10:52:00;;;;;;;2.55;0.60;;;;;;;25.95;39.48;97549.19;5027191;28;20049;-66
2022/07/03 10:54:33;;;;;;;1.63;0.93;;;;;;;25.89;38.67;97545.00;5007438;28;20041;-66
2022/07/03 10:57:00;;;;;;;0.43;0.30;;;;;;;25.98;38.86;97549.28;5007354;28;20042;-66
2022/07/03 10:59:36;;;;;;;1.50;0.60;;;;;;;26.06;37.71;97544.75;5010342;28;20597;-67
2022/07/03 11:02:41;;;;;;;2.13;0.60;;;;;;;26.10;38.71;97550.41;5027581;28;20049;-67
2022/07/03 11:05:19;;;;;;;1.10;0.52;;;;;;;26.25;37.54;97537.75;5005045;28;20482;-67
2022/07/03 11:07:49;;;;;;;0.88;0.60;;;;;;;26.08;39.79;97539.66;5004348;28;20045;-67
2022/07/03 11:10:16;;;;;;;1.30;0.63;;;;;;;26.18;38.61;97538.38;5005923;28;20061;-67
2022/07/03 11:13:05;;;;;;;3.25;0.68;;;;;;;26.21;38.59;97540.41;5022251;28;20543;-67
2022/07/03 11:15:34;;;;;;;2.47;0.73;;;;;;;26.15;39.30;97547.38;5027494;28;20052;-66
2022/07/03 11:18:19;;;;;;;2.92;0.60;;;;;;;26.17;39.87;97533.94;5026479;28;20056;-67
2022/07/03 11:20:48;;;;;;;1.10;0.77;;;;;;;26.15;38.61;97541.84;5045956;28;20428;-67
2022/07/03 11:23:27;;;;;;;2.88;0.80;;;;;;;26.19;38.39;97530.84;5047392;28;20041;-68
2022/07/03 11:25:54;;;;;;;2.20;0.80;;;;;;;26.29;38.54;97530.38;5048117;28;20049;-67
2022/07/03 11:28:32;;;;;;;2.55;0.68;;;;;;;26.33;40.01;97520.19;5051109;28;20125;-67
2022/07/03 11:31:18;;;;;;;1.10;0.80;;;;;;;26.55;38.99;97515.22;5040166;28;20065;-67
2022/07/03 11:33:48;;;;;;;1.33;0.60;;;;;;;26.66;38.32;97514.69;5011327;28;20048;-67
2022/07/03 11:36:14;;;;;;;3.30;0.80;;;;;;;26.69;37.77;97514.81;5022539;28;20067;-66
2022/07/03 11:38:45;;;;;;;0.50;0.50;;;;;;;26.91;37.69;97514.53;5023809;28;20049;-68
2022/07/03 11:41:14;;;;;;;1.05;0.60;;;;;;;26.98;37.59;97517.53;5032858;28;20508;-67
2022/07/03 11:43:51;;;;;;;1.63;0.70;;;;;;;27.05;37.19;97514.94;5024194;28;20449;-67
2022/07/03 11:46:21;;;;;;;1.52;0.50;;;;;;;27.13;36.24;97511.16;5030351;28;20412;-67
2022/07/03 11:48:48;;;;;;;1.05;0.60;;;;;;;27.29;36.99;97503.97;5048257;28;20115;-67
2022/07/03 11:51:15;;;;;;;1.23;0.75;;;;;;;27.42;37.00;97499.13;5031625;28;20638;-67
2022/07/03 11:53:42;;;;;;;1.90;0.80;;;;;;;27.63;36.83;97505.22;5047895;28;20047;-67
2022/07/03 11:56:10;;;;;;;1.42;0.75;;;;;;;27.54;36.16;97499.03;5048115;28;20044;-66
2022/07/03 11:58:51;;;;;;;1.25;0.60;;;;;;;27.44;36.43;97499.56;5048446;28;20045;-66
2022/07/03 12:01:26;;;;;;;1.00;0.60;;;;;;;27.43;36.57;97503.53;5047516;28;20045;-68